Forside
METAR-TAF:

METAR-TAF

Lufthavne :

Namangan, Usbekistan

Breddekreds: 40-59-04N, længdekreds: 071-33-24E, højde: 474 m

Aktuelle vejr

Denne rapport blev lavet for 26 minutter siden, kl. 23:30 UTC
Vind 4 kt fra nord
Temperatur 25°C
Fugtighed 44%
Tryk 999 hPa
Sigt 10 km eller mere

METAR: UTFN 162330Z 35004KT 9999 NSC 25/12 Q0999 R28/CLRD70 NOSIG

Tid: 04:56 (23:56 UTC)

Vejrudsigter

Denne rapport blev lavet for 56 minutter siden, kl. 23:00 UTC
Foreløbig gælder fra 17 på 00 UTC til 17 på 24 UTC
Vind 10 kt fra nordnordvest
Sigt 10 km eller mere
Midlertidig
fra 17 på 04 UTC til 17 på 12 UTC
Vind 10 kt fra sydøst
Nogle få skyer i en højde af 5000 ft, Cumulonimbus.

TAF: UTFN 162300Z 1700/1724 34010KT 9999 NSC TX38/1710Z TN25/1700Z TEMPO 1704/1712 14010KT FEW050CB

Vejrobservationer og prognoser fra mere end 4000 lufthavne (METAR og TAF).

De gule og røde prikker repræsenterer de meteorologiske stationer.

Flyt musen over at se navnet på stationen.

Så klik over at se vejr observationer og prognoser.

At skifte det kort: Klik på de grønne knapper med et sort kors for at zoome ind; på den grønne knap med en bindestreg for at zoome ud; eller på de grønne pile for tilstødende kort.


METAR-TAF: